Latest Weather Observations for Cape Naturaliste

IDW60801

Issued at 9:32 pm WST Tuesday 9 February 2016 (issued every 30 minutes, with the page automatically refreshed every 10 minutes)

About weather observations | Map of weather stations | Latest weather observations for WA | Other Formats
Station Details ID: 009519 Name: CAPE NATURALISTE Lat: -33.54 Lon: 115.02 Height: 109.0 m
Data from the previous 72 hours. | See also: Recent months at Cape Naturaliste
Date/Time
WST
Temp
°C
App
Temp
°C
Dew
Point
Rel
Hum
%
Delta-T
°C
Wind Press
QNH
hPa
Press
MSL
hPa
Rain
since 9 am
mm
Dir
 
Spd
km/h
Gust
km/h
Spd
kts
Gust
kts
09/09:30pm 21.4 16.9 15.5 69 3.5 SSE 33 46 18 25 1014.7 1014.3 0.0
09/09:00pm 22.2 18.6 15.3 65 4.1 SSE 28 39 15 21 1014.5 1014.1 0.0
09/08:30pm 22.3 19.9 14.4 61 4.7 SSE 20 32 11 17 1014.4 1014.0 0.0
09/08:00pm 23.0 20.9 14.8 60 4.9 SSE 19 28 10 15 1014.5 1014.1 0.0
09/07:30pm 24.4 22.3 14.8 55 5.8 SSE 19 30 10 16 1014.3 1013.9 0.0
09/07:00pm 26.5 25.2 13.6 45 7.6 SSE 13 19 7 10 1014.1 1013.7 0.0
09/06:30pm 28.8 28.6 15.7 45 8.1 SSE 11 15 6 8 1014.0 1013.6 0.0
09/06:00pm 31.0 30.5 15.8 40 9.5 SSW 13 17 7 9 1013.9 1013.5 0.0
09/05:30pm 32.0 31.0 16.7 40 9.7 S 17 24 9 13 1013.7 1013.3 0.0
09/05:00pm 32.3 32.5 17.7 41 9.4 S 13 24 7 13 1013.8 1013.4 0.0
09/04:30pm 31.5 31.5 18.1 44 8.7 SW 15 20 8 11 1013.8 1013.4 0.0
09/04:00pm 31.5 32.2 18.8 46 8.3 WSW 13 15 7 8 1014.0 1013.6 0.0
09/03:30pm 31.6 32.3 18.9 47 8.3 SW 13 15 7 8 1014.0 1013.6 0.0
09/03:00pm 30.7 31.5 19.1 50 7.6 SW 13 17 7 9 1014.1 1013.7 0.0
09/02:30pm 29.6 29.2 18.1 50 7.4 SW 17 20 9 11 1014.3 1013.9 0.0
09/02:00pm 30.5 30.2 18.2 47 7.9 SW 17 20 9 11 1014.6 1014.2 0.0
09/01:30pm 32.1 32.7 18.7 45 8.7 SW 13 19 7 10 1014.7 1014.3 0.0
09/01:00pm 31.1 31.4 17.8 45 8.5 SW 13 19 7 10 1015.1 1014.7 0.0
09/12:30pm 31.6 32.1 17.5 43 9.0 WNW 11 17 6 9 1015.1 1014.7 0.0
09/12:00pm 30.9 31.7 17.2 43 8.7 NW 9 17 5 9 1015.3 1014.9 0.0
09/11:30am 30.9 31.6 17.9 45 8.4 SW 11 19 6 10 1015.5 1015.1 0.0
09/11:00am 29.2 29.9 18.0 51 7.2 WSW 11 17 6 9 1015.7 1015.3 0.0
09/10:30am 27.5 28.1 17.7 55 6.2 WSW 11 17 6 9 1015.9 1015.5 0.0
09/10:00am 26.9 27.0 17.4 56 6.0 SW 13 17 7 9 1015.8 1015.4 0.0
09/09:30am 28.9 29.9 16.8 48 7.6 NE 7 11 4 6 1015.7 1015.3 0.0
09/09:00am 29.1 29.1 15.2 42 8.5 ESE 9 15 5 8 1015.8 1015.4 0.0
09/08:30am 27.2 26.3 15.9 50 7.0 SE 15 20 8 11 1015.7 1015.3 0.0
09/08:00am 23.8 25.1 17.5 68 3.9 SSW 7 11 4 6 1015.8 1015.4 0.0
09/07:30am 21.5 21.8 16.0 71 3.3 SW 9 11 5 6 1015.4 1015.0 0.0
09/07:00am 19.8 18.8 14.6 72 3.0 SW 13 17 7 9 1015.1 1014.7 0.0
09/06:30am 18.9 17.7 14.0 73 2.8 SW 13 17 7 9 1014.9 1014.5 0.0
09/06:00am 18.9 17.6 13.7 72 3.0 SW 13 17 7 9 1014.5 1014.1 0.0
09/05:30am 19.4 17.8 13.8 70 3.2 SW 15 19 8 10 1014.4 1014.0 0.0
09/05:00am 22.0 19.6 9.9 46 6.6 SSE 13 17 7 9 1014.0 1013.6 0.0
09/04:30am 21.8 20.0 10.9 50 6.0 S 11 15 6 8 1013.9 1013.5 0.0
09/04:00am 22.3 20.2 9.8 45 6.8 S 11 15 6 8 1013.6 1013.2 0.0
09/03:30am 23.5 19.8 8.0 37 8.2 SE 17 19 9 10 1013.7 1013.3 0.0
09/03:00am 23.2 20.0 8.5 39 7.9 SE 15 17 8 9 1013.9 1013.5 0.0
09/02:30am 23.4 19.8 8.3 38 8.0 SE 17 19 9 10 1014.0 1013.6 0.0
09/02:00am 23.3 20.0 8.2 38 8.0 SE 15 17 8 9 1014.2 1013.8 0.0
09/01:30am 23.6 21.6 10.3 43 7.4 SSE 11 15 6 8 1014.5 1014.1 0.0
09/01:00am 25.7 21.2 6.8 30 9.9 SE 20 22 11 12 1014.4 1014.0 0.0
09/12:30am 25.9 21.1 7.5 31 9.8 SE 22 24 12 13 1014.4 1014.0 0.0
09/12:00am 25.5 21.3 8.1 33 9.3 SE 20 28 11 15 1014.5 1014.1 0.0
 
Date/Time
WST
Temp
°C
App
Temp
°C
Dew
Point
Rel
Hum
%
Delta-T
°C
Wind Press
QNH
hPa
Press
MSL
hPa
Rain
since 9 am
mm
Dir
 
Spd
km/h
Gust
km/h
Spd
kts
Gust
kts
08/11:30pm 25.4 21.0 8.8 35 9.0 SE 22 26 12 14 1014.6 1014.2 0.0
08/11:00pm 25.0 20.4 9.7 38 8.4 SE 24 28 13 15 1014.6 1014.2 0.0
08/10:30pm 25.1 20.6 10.2 39 8.3 SE 24 32 13 17 1015.0 1014.6 0.0
08/10:00pm 25.1 20.4 10.6 40 8.1 SSE 26 33 14 18 1015.1 1014.7 0.0
08/09:30pm 25.8 21.5 9.2 35 9.1 SSE 22 32 12 17 1015.1 1014.7 0.0
08/09:00pm 25.9 21.6 7.0 30 10.0 SSE 19 26 10 14 1015.1 1014.7 0.0
08/08:30pm 26.9 22.8 7.9 30 10.3 SW 19 20 10 11 1014.7 1014.3 0.0
08/08:00pm 27.5 22.7 7.4 28 10.8 SSW 22 28 12 15 1014.7 1014.3 0.0
08/07:30pm 28.1 24.3 7.4 27 11.1 SW 17 20 9 11 1014.7 1014.3 0.0
08/07:00pm 28.1 25.3 9.9 32 10.2 SW 15 19 8 10 1014.5 1014.1 0.0
08/06:30pm 31.1 28.7 8.8 25 12.5 SW 11 15 6 8 1014.4 1014.0 0.0
08/06:00pm 34.0 31.2 7.1 19 14.9 W 11 15 6 8 1014.3 1013.9 0.0
08/05:30pm 36.0 33.0 6.2 16 16.4 WNW 11 15 6 8 1014.3 1013.9 0.0
08/05:00pm 36.5 33.1 5.7 15 16.9 NW 13 17 7 9 1014.3 1013.9 0.0
08/04:30pm 35.4 33.9 9.0 20 15.1 WNW 7 11 4 6 1014.4 1014.0 0.0
08/04:00pm 34.9 33.2 10.0 22 14.4 WNW 9 13 5 7 1014.6 1014.2 0.0
08/03:30pm 33.6 32.0 11.5 26 13.1 W 11 15 6 8 1014.7 1014.3 0.0
08/03:00pm 34.7 30.8 6.9 18 15.4 NNW 17 22 9 12 1014.9 1014.5 0.0
08/02:30pm 35.8 31.3 6.1 16 16.3 N 19 28 10 15 1015.0 1014.6 0.0
08/02:00pm 35.4 31.4 8.3 19 15.4 NNE 19 24 10 13 1015.2 1014.8 0.0
08/01:30pm 34.6 30.6 9.1 21 14.6 NNE 20 26 11 14 1015.4 1015.0 0.0
08/01:00pm 34.3 30.0 9.5 22 14.2 NE 22 28 12 15 1015.6 1015.2 0.0
08/12:30pm 34.2 29.5 9.4 22 14.2 NE 24 30 13 16 1015.8 1015.4 0.0
08/12:00pm 33.6 28.8 9.0 22 14.0 NE 24 32 13 17 1016.1 1015.7 0.0
08/11:30am 32.6 28.1 10.0 25 13.0 ENE 24 30 13 16 1016.2 1015.8 0.0
08/11:00am 31.7 26.8 9.8 26 12.5 ENE 26 32 14 17 1016.4 1016.0 0.0
08/10:30am 31.1 26.1 11.0 29 11.7 ENE 28 37 15 20 1016.5 1016.1 0.0
08/10:00am 29.7 24.5 11.7 33 10.5 ENE 30 35 16 19 1016.5 1016.1 0.0
08/09:30am 28.6 23.7 12.5 37 9.5 E 30 39 16 21 1016.5 1016.1 0.0
08/09:00am 27.1 22.5 13.4 42 8.1 E 30 37 16 20 1016.4 1016.0 0.0
08/08:30am 25.9 21.4 13.7 47 7.2 E 30 37 16 20 1016.4 1016.0 0.0
08/08:00am 24.8 19.9 13.7 50 6.5 E 32 39 17 21 1016.5 1016.1 0.0
08/07:30am 23.9 19.5 14.0 54 5.8 E 30 37 16 20 1016.4 1016.0 0.0
08/07:00am 22.9 17.9 13.4 55 5.5 E 32 35 17 19 1016.1 1015.7 0.0
08/06:30am 22.1 16.8 13.2 57 5.1 E 33 41 18 22 1015.8 1015.4 0.0
08/06:00am 21.2 15.8 12.9 59 4.7 ESE 33 39 18 21 1015.5 1015.1 0.0
08/05:30am 21.1 16.0 13.0 60 4.6 ESE 32 39 17 21 1015.3 1014.9 0.0
08/05:00am 21.7 16.5 13.3 59 4.8 ESE 33 39 18 21 1015.2 1014.8 0.0
08/04:30am 21.8 16.8 13.9 61 4.6 ESE 33 43 18 23 1015.1 1014.7 0.0
08/04:00am 22.0 17.3 14.9 64 4.2 ESE 33 44 18 24 1015.0 1014.6 0.0
08/03:30am 22.1 17.3 15.5 66 4.0 ESE 35 43 19 23 1015.1 1014.7 0.0
08/03:00am 22.5 18.2 15.8 66 4.0 ESE 33 41 18 22 1015.2 1014.8 0.0
08/02:30am 22.9 18.9 16.2 66 4.1 ESE 32 41 17 22 1015.3 1014.9 0.0
08/02:00am 23.3 19.5 16.6 66 4.1 ESE 32 44 17 24 1015.5 1015.1 0.0
08/01:30am 23.1 20.0 16.6 67 4.0 ESE 28 35 15 19 1015.7 1015.3 0.0
08/01:00am 23.5 20.1 16.8 66 4.1 ESE 30 37 16 20 1015.9 1015.5 0.0
08/12:30am 24.0 21.1 17.0 65 4.3 ESE 28 37 15 20 1016.1 1015.7 0.0
08/12:00am 23.7 21.0 16.7 65 4.3 SE 26 35 14 19 1016.3 1015.9 0.0
 
Date/Time
WST
Temp
°C
App
Temp
°C
Dew
Point
Rel
Hum
%
Delta-T
°C
Wind Press
QNH
hPa
Press
MSL
hPa
Rain
since 9 am
mm
Dir
 
Spd
km/h
Gust
km/h
Spd
kts
Gust
kts
07/11:30pm 23.9 20.6 16.9 65 4.3 SE 30 39 16 21 1016.6 1016.3 0.0
07/11:00pm 24.3 21.5 17.3 65 4.4 SE 28 35 15 19 1016.9 1016.6 0.0
07/10:30pm 24.2 21.3 17.0 64 4.5 SE 28 41 15 22 1017.0 1016.7 0.0
07/10:00pm 24.3 20.8 16.6 62 4.7 SE 30 37 16 20 1017.0 1016.7 0.0
07/09:30pm 24.8 20.9 14.3 52 6.2 SE 28 37 15 20 1017.0 1016.7 0.0
07/09:00pm 24.4 20.8 14.2 53 6.0 SSE 26 35 14 19 1016.8 1016.5 0.0
07/08:30pm 24.3 20.8 14.4 54 5.9 SSE 26 33 14 18 1016.7 1016.4 0.0
07/08:00pm 24.5 21.5 14.9 55 5.8 SSE 24 33 13 18 1016.3 1015.9 0.0
07/07:30pm 25.1 23.8 15.7 56 5.7 SE 17 24 9 13 1016.3 1015.9 0.0
07/07:00pm 26.2 25.4 16.2 54 6.2 SSE 15 20 8 11 1016.1 1015.7 0.0
07/06:30pm 26.0 25.2 17.1 58 5.6 SW 17 20 9 11 1015.8 1015.4 0.0
07/06:00pm 28.1 27.3 16.1 48 7.4 SSW 15 19 8 10 1015.8 1015.4 0.0
07/05:30pm 29.0 27.3 13.6 38 9.2 SSW 15 19 8 10 1015.9 1015.5 0.0
07/05:00pm 29.6 28.6 14.6 40 9.1 SW 13 19 7 10 1015.9 1015.5 0.0
07/04:30pm 29.1 28.1 15.6 44 8.3 SW 15 20 8 11 1016.0 1015.6 0.0
07/04:00pm 28.6 27.4 16.2 47 7.7 SW 17 20 9 11 1016.1 1015.7 0.0
07/03:30pm 28.3 27.3 16.6 49 7.3 SW 17 22 9 12 1016.2 1015.8 0.0
07/03:00pm 28.4 26.9 15.3 45 8.0 SW 17 20 9 11 1016.3 1015.9 0.0
07/02:30pm 28.9 28.0 16.8 48 7.6 SW 17 22 9 12 1016.5 1016.1 0.0
07/02:00pm 28.2 26.6 15.1 44 8.0 SW 17 20 9 11 1016.7 1016.4 0.0
07/01:30pm 27.4 25.3 14.8 46 7.6 SW 19 26 10 14 1016.8 1016.5 0.0
07/01:00pm 28.1 27.5 16.7 50 7.1 SW 15 20 8 11 1016.9 1016.6 0.0
07/12:30pm 26.1 25.7 16.1 54 6.2 SSW 13 19 7 10 1017.1 1016.8 0.0
07/12:00pm 26.4 25.3 15.4 50 6.7 SW 15 20 8 11 1017.3 1017.0 0.0
07/11:30am 26.3 26.2 15.0 49 6.8 SW 9 17 5 9 1017.6 1017.3 0.0
07/11:00am 28.3 26.3 14.9 44 8.2 ESE 19 24 10 13 1017.6 1017.3 0.0
07/10:30am 27.0 24.3 14.7 47 7.4 ESE 22 30 12 16 1017.6 1017.3 0.0
07/10:00am 25.2 22.0 14.3 50 6.5 ESE 24 33 13 18 1017.8 1017.5 0.0
07/09:30am 23.6 20.1 14.6 57 5.4 ESE 26 37 14 20 1017.9 1017.6 0.0
07/09:00am 22.1 18.1 14.2 61 4.6 ESE 28 39 15 21 1017.8 1017.5 0.0
07/08:30am 21.3 17.7 14.2 64 4.2 ESE 26 37 14 20 1017.7 1017.4 0.0
07/08:00am 20.0 16.2 13.7 67 3.6 ESE 26 37 14 20 1017.7 1017.4 0.0
07/07:30am 19.2 15.9 14.0 72 3.0 ESE 24 33 13 18 1017.6 1017.3 0.0
07/07:00am 17.8 14.0 13.7 77 2.3 SE 26 35 14 19 1017.7 1017.4 0.0
07/06:30am 16.4 12.9 13.3 82 1.7 SE 24 32 13 17 1017.4 1017.1 0.0
07/06:00am 15.5 11.8 12.6 83 1.6 SE 24 30 13 16 1017.5 1017.2 0.0
07/05:30am 15.4 11.9 12.3 82 1.7 SE 22 30 12 16 1017.3 1017.0 0.0
07/05:00am 15.7 12.0 12.6 82 1.7 SE 24 33 13 18 1017.0 1016.7 0.0
07/04:30am 15.9 12.2 12.6 81 1.8 SE 24 30 13 16 1016.8 1016.5 0.0
07/04:00am 16.0 11.9 12.7 81 1.8 SE 26 39 14 21 1016.5 1016.1 0.0
07/03:30am 16.0 11.5 12.7 81 1.8 SE 28 37 15 20 1016.6 1016.3 0.0
07/03:00am 16.0 10.7 12.6 80 1.9 SE 32 41 17 22 1016.4 1016.0 0.0
07/02:30am 16.0 10.5 12.4 79 2.0 SE 33 41 18 22 1016.3 1015.9 0.0
07/02:00am 16.3 10.8 12.5 78 2.1 SE 33 43 18 23 1016.4 1016.0 0.0
07/01:30am 16.7 11.3 12.7 77 2.2 SE 33 43 18 23 1016.5 1016.1 0.0
07/01:00am 17.0 11.6 12.9 77 2.3 SE 33 46 18 25 1016.7 1016.4 0.0
07/12:30am 17.0 11.6 12.7 76 2.4 SE 33 44 18 24 1016.8 1016.5 0.0
07/12:00am 17.2 11.4 12.7 75 2.5 SE 35 44 19 24 1016.8 1016.5 0.0
 
Date/Time
WST
Temp
°C
App
Temp
°C
Dew
Point
Rel
Hum
%
Delta-T
°C
Wind Press
QNH
hPa
Press
MSL
hPa
Rain
since 9 am
mm
Dir
 
Spd
km/h
Gust
km/h
Spd
kts
Gust
kts
06/11:30pm 17.3 11.5 12.8 75 2.5 SE 35 48 19 26 1017.0 1016.7 0.0
06/11:00pm 17.4 11.3 12.9 75 2.5 SE 37 48 20 26 1017.0 1016.7 0.0
06/10:30pm 17.5 11.3 12.8 74 2.6 SE 37 48 20 26 1017.3 1017.0 0.0
06/10:00pm 17.8 12.1 13.1 74 2.6 SE 35 50 19 27 1017.1 1016.8 0.0

Other Formats:

Comma delimited format used in spreadsheet applications
http://www.bom.gov.au/fwo/IDW60801/IDW60801.94600.axf

JavaScript Object Notation format (JSON) in row-major order
http://www.bom.gov.au/fwo/IDW60801/IDW60801.94600.json